Terminal Aerodrome Forecast
Issued by NWS

Home | Current Version | Previous Version | Text Only | Print | Product List | Glossary On
Versions: 1 2 3 4 5 6 7 8 9 10 11 12 13 14 15 16 17 18 19
000
FTUS43 KMPX 212000 AAA
TAFRNH
TAF AMD
KRNH 212049Z 2121/2218 11007KT P6SM BKN020
      TEMPO 2122/2202 4SM -RA BR SCT020 BKN040
     FM220200 VRB03KT P6SM SCT040
     FM220500 VRB03KT 3SM BR SCT003
     FM220800 VRB03KT 1/4SM FG VV001
     FM221400 34004KT 2SM BR OVC003
     FM221600 35007KT 4SM BR OVC008=

USA.gov is the U.S. government's official web portal to all federal, state and local government web resources and services.